createdAt,value
2019-03-20T00:00:28.122Z,36.33
2019-03-20T00:02:56.646Z,35.07
2019-03-20T00:05:25.394Z,37.50
2019-03-20T00:07:53.959Z,34.00
2019-03-20T00:10:53.474Z,33.38
2019-03-20T00:13:21.982Z,35.47
2019-03-20T00:15:50.534Z,38.77
2019-03-20T00:18:19.022Z,27.30
2019-03-20T00:20:47.918Z,28.90
2019-03-20T00:23:16.422Z,32.83
2019-03-20T00:25:44.902Z,32.73
2019-03-20T00:28:13.702Z,32.33
2019-03-20T00:30:42.394Z,32.73
2019-03-20T00:33:10.938Z,33.63
2019-03-20T00:35:39.470Z,27.93
2019-03-20T00:38:08.277Z,26.00
2019-03-20T00:40:38.613Z,28.60
2019-03-20T00:43:07.477Z,27.53
2019-03-20T00:45:36.386Z,25.40
2019-03-20T00:48:05.389Z,27.33
2019-03-20T00:50:33.910Z,26.53
2019-03-20T00:53:02.480Z,24.73
2019-03-20T00:55:31.669Z,24.50
2019-03-20T00:58:00.189Z,32.40
2019-03-20T01:00:28.734Z,29.33
2019-03-20T01:02:57.514Z,28.07
2019-03-20T01:05:26.017Z,26.57
2019-03-20T01:07:54.542Z,19.83
2019-03-20T01:10:23.128Z,22.13
2019-03-20T01:12:51.722Z,24.37
2019-03-20T01:15:20.601Z,25.30
2019-03-20T01:17:49.490Z,24.23
2019-03-20T01:20:18.253Z,26.17
2019-03-20T01:22:47.210Z,25.67
2019-03-20T01:25:16.015Z,24.83
2019-03-20T01:27:44.995Z,16.60
2019-03-20T01:30:20.068Z,21.53
2019-03-20T01:32:48.885Z,21.57
2019-03-20T01:35:23.681Z,21.87
2019-03-20T01:37:47.215Z,20.80
2019-03-20T01:40:15.705Z,20.57
2019-03-20T01:42:44.176Z,20.97
2019-03-20T01:45:12.813Z,24.17
2019-03-20T01:47:41.308Z,21.40
2019-03-20T01:50:09.814Z,21.60
2019-03-20T01:52:38.280Z,16.80
2019-03-20T01:55:07.096Z,21.17
2019-03-20T01:57:35.601Z,22.43
2019-03-20T02:00:04.448Z,19.47
2019-03-20T02:02:32.920Z,17.80
2019-03-20T02:05:01.541Z,18.97
2019-03-20T02:07:30.547Z,23.63
2019-03-20T02:09:59.275Z,15.47
2019-03-20T02:12:28.068Z,19.97
2019-03-20T02:14:56.692Z,21.53
2019-03-20T02:17:25.187Z,21.13
2019-03-20T02:19:53.990Z,18.53
2019-03-20T02:22:22.479Z,17.10
2019-03-20T02:24:51.248Z,19.83
2019-03-20T02:27:19.740Z,16.17
2019-03-20T02:29:48.212Z,18.93
2019-03-20T02:32:16.715Z,20.70
2019-03-20T02:34:45.226Z,19.93
2019-03-20T02:37:14.016Z,17.77
2019-03-20T02:39:42.773Z,19.43
2019-03-20T02:42:11.817Z,19.27
2019-03-20T02:44:40.611Z,15.80
2019-03-20T02:47:09.118Z,15.77
2019-03-20T02:49:37.629Z,24.20
2019-03-20T02:52:06.462Z,21.00
2019-03-20T02:54:35.025Z,20.70
2019-03-20T03:01:55.567Z,21.00
2019-03-20T03:04:24.039Z,25.40
2019-03-20T03:06:52.855Z,21.50
2019-03-20T03:09:21.348Z,17.80
2019-03-20T03:11:49.875Z,24.87
2019-03-20T03:14:18.364Z,19.60
2019-03-20T03:16:46.872Z,17.57
2019-03-20T03:19:15.375Z,21.60
2019-03-20T03:21:43.872Z,15.93
2019-03-20T03:24:12.387Z,21.70
2019-03-20T03:26:40.866Z,17.07
2019-03-20T03:29:09.346Z,17.70
2019-03-20T03:31:38.140Z,24.33
2019-03-20T03:34:06.633Z,18.53
2019-03-20T03:36:35.150Z,16.00
2019-03-20T03:39:04.482Z,21.97
2019-03-20T03:41:32.976Z,20.10
2019-03-20T03:44:01.803Z,18.70
2019-03-20T03:46:30.587Z,19.90
2019-03-20T03:48:59.615Z,20.67
2019-03-20T03:51:28.354Z,19.63
2019-03-20T03:53:57.492Z,24.67
2019-03-20T03:56:25.981Z,18.70
2019-03-20T03:58:55.066Z,21.53
2019-03-20T04:01:23.791Z,23.70
2019-03-20T04:03:52.398Z,23.43
2019-03-20T04:06:34.544Z,22.87
2019-03-20T04:08:49.792Z,18.33
2019-03-20T04:11:18.256Z,20.67
2019-03-20T04:13:47.035Z,21.80
2019-03-20T04:16:15.553Z,20.57
2019-03-20T04:18:44.034Z,23.17
2019-03-20T04:21:12.537Z,21.00
2019-03-20T04:23:41.008Z,20.80
2019-03-20T04:26:09.471Z,17.23
2019-03-20T04:28:38.014Z,19.50
2019-03-20T04:31:06.513Z,25.57
2019-03-20T04:33:35.654Z,22.67
2019-03-20T04:36:05.618Z,30.00
2019-03-20T04:38:34.134Z,20.10
2019-03-20T04:41:02.922Z,19.97
2019-03-20T04:43:31.438Z,29.20
2019-03-20T04:46:00.227Z,26.00
2019-03-20T04:48:28.694Z,18.53
2019-03-20T04:50:57.178Z,18.13
2019-03-20T04:53:25.806Z,23.10
2019-03-20T04:55:54.630Z,26.33
2019-03-20T04:58:23.100Z,18.70
2019-03-20T05:00:51.602Z,22.63
2019-03-20T05:03:20.038Z,22.37
2019-03-20T05:05:48.887Z,22.90
2019-03-20T05:08:17.421Z,27.77
2019-03-20T05:10:45.910Z,28.03
2019-03-20T05:13:14.437Z,29.02
2019-03-20T05:15:42.899Z,26.20
2019-03-20T05:18:11.693Z,29.93
2019-03-20T05:20:40.205Z,30.80
2019-03-20T05:23:08.808Z,33.83
2019-03-20T05:25:37.270Z,23.00
2019-03-20T05:28:06.017Z,19.43
2019-03-20T05:30:34.477Z,18.80
2019-03-20T05:33:03.038Z,18.60
2019-03-20T05:35:31.522Z,23.20
2019-03-20T05:38:00.006Z,18.20
2019-03-20T05:40:28.497Z,20.97
2019-03-20T05:42:57.041Z,22.17
2019-03-20T05:45:25.542Z,26.03
2019-03-20T05:47:54.046Z,20.00
2019-03-20T05:50:22.529Z,20.05
2019-03-20T05:52:51.046Z,20.50
2019-03-20T05:55:19.573Z,20.80
2019-03-20T05:57:48.082Z,20.97
2019-03-20T06:00:16.685Z,13.47
2019-03-20T06:02:45.530Z,16.13
2019-03-20T06:05:14.094Z,16.03
2019-03-20T06:07:42.850Z,20.13
2019-03-20T06:10:12.335Z,17.17
2019-03-20T06:12:40.994Z,14.73
2019-03-20T06:15:09.590Z,15.90
2019-03-20T06:17:38.050Z,15.50
2019-03-20T06:20:06.961Z,15.73
2019-03-20T06:22:35.518Z,14.57
2019-03-20T06:25:05.031Z,11.00
2019-03-20T06:27:33.838Z,12.27
2019-03-20T06:30:02.634Z,13.13
2019-03-20T06:32:31.098Z,12.17
2019-03-20T06:34:59.584Z,11.87
2019-03-20T06:37:32.610Z,13.35
2019-03-20T06:39:56.594Z,14.50
2019-03-20T06:42:25.286Z,16.40
2019-03-20T06:44:53.778Z,9.33
2019-03-20T06:47:23.167Z,8.80
2019-03-20T06:49:51.639Z,9.28
2019-03-20T06:52:20.587Z,12.93
2019-03-20T06:54:49.078Z,13.47
2019-03-20T06:57:17.542Z,12.27
2019-03-20T07:01:02.084Z,13.43
2019-03-20T07:03:38.526Z,15.63
2019-03-20T07:06:19.917Z,15.13
2019-03-20T07:08:52.359Z,15.63
2019-03-20T07:11:20.058Z,11.37
2019-03-20T07:13:50.668Z,15.67
2019-03-20T07:16:17.922Z,11.07
2019-03-20T07:18:47.019Z,12.73
2019-03-20T07:21:15.458Z,15.03
2019-03-20T07:23:43.953Z,9.87
2019-03-20T07:26:12.430Z,13.23
2019-03-20T07:28:41.258Z,12.20
2019-03-20T07:31:15.409Z,15.95
2019-03-20T07:33:38.267Z,11.67
2019-03-20T07:36:06.921Z,11.03
2019-03-20T07:38:35.388Z,10.95
2019-03-20T07:41:05.705Z,13.00
2019-03-20T07:43:34.485Z,10.43
2019-03-20T07:46:02.973Z,9.93
2019-03-20T07:48:31.788Z,10.13
2019-03-20T07:51:00.333Z,10.17
2019-03-20T07:53:28.769Z,6.40
2019-03-20T07:55:57.269Z,7.53
2019-03-20T07:58:25.770Z,8.58
2019-03-20T08:00:54.221Z,8.60
2019-03-20T08:03:22.705Z,10.05
2019-03-20T08:05:51.185Z,15.28
2019-03-20T08:08:19.674Z,8.78
2019-03-20T08:10:48.202Z,8.48
2019-03-20T08:13:16.725Z,10.18
2019-03-20T08:15:45.177Z,10.00
2019-03-20T08:18:13.813Z,7.67
2019-03-20T08:20:42.353Z,9.75
2019-03-20T08:23:10.837Z,12.33
2019-03-20T08:25:39.649Z,13.50
2019-03-20T08:28:08.189Z,9.45
2019-03-20T08:30:36.677Z,9.25
2019-03-20T08:33:05.274Z,9.13
2019-03-20T08:35:34.045Z,10.48
2019-03-20T08:38:02.714Z,9.08
2019-03-20T08:40:31.226Z,11.57
2019-03-20T08:42:59.725Z,7.15
2019-03-20T08:45:28.217Z,6.20
2019-03-20T08:47:57.069Z,6.47
2019-03-20T08:50:25.749Z,7.55
2019-03-20T08:52:54.260Z,13.72
2019-03-20T08:55:22.809Z,11.40
2019-03-20T08:57:51.753Z,10.15
2019-03-20T09:00:20.376Z,6.12
2019-03-20T09:02:48.959Z,8.03
2019-03-20T09:05:17.472Z,10.38
2019-03-20T09:07:47.370Z,6.10
2019-03-20T09:10:16.413Z,5.17
2019-03-20T09:12:44.898Z,6.20
2019-03-20T09:15:14.072Z,4.97
2019-03-20T09:17:42.599Z,4.47
2019-03-20T09:20:12.791Z,5.83
2019-03-20T09:22:41.617Z,5.75
2019-03-20T09:25:12.017Z,4.38
2019-03-20T09:27:40.520Z,2.98
2019-03-20T09:30:13.245Z,4.85
2019-03-20T09:32:41.737Z,4.28
2019-03-20T09:35:10.317Z,6.35
2019-03-20T09:37:38.763Z,4.03
2019-03-20T09:40:09.032Z,3.42
2019-03-20T09:42:37.521Z,3.55
2019-03-20T09:45:06.794Z,4.17
2019-03-20T09:47:35.340Z,3.65
2019-03-20T09:50:05.600Z,4.80
2019-03-20T09:52:34.088Z,3.30
2019-03-20T09:55:02.620Z,2.77
2019-03-20T09:57:31.076Z,3.27
2019-03-20T09:59:59.563Z,6.12
2019-03-20T10:02:28.100Z,5.10
2019-03-20T10:04:56.568Z,10.10
2019-03-20T10:07:25.348Z,4.45
2019-03-20T10:09:53.800Z,3.30
2019-03-20T10:12:22.348Z,3.47
2019-03-20T10:14:51.540Z,4.65
2019-03-20T10:17:20.052Z,3.25
2019-03-20T10:19:48.904Z,5.28
2019-03-20T10:22:17.372Z,2.47
2019-03-20T10:24:45.851Z,4.08
2019-03-20T10:27:14.397Z,3.27
2019-03-20T10:29:42.888Z,7.50
2019-03-20T10:32:11.367Z,7.42
2019-03-20T10:34:40.240Z,5.90
2019-03-20T10:37:08.861Z,5.00
2019-03-20T10:39:37.323Z,4.08
2019-03-20T10:42:05.876Z,6.97
2019-03-20T10:44:34.412Z,5.97
2019-03-20T10:47:03.138Z,5.70
2019-03-20T10:49:31.944Z,4.53
2019-03-20T10:52:00.498Z,6.08
2019-03-20T10:54:29.656Z,4.72
2019-03-20T10:56:58.456Z,2.10
2019-03-20T10:59:27.106Z,4.10
2019-03-20T11:01:55.948Z,8.18
2019-03-20T11:04:24.473Z,4.05
2019-03-20T11:06:53.337Z,3.15
2019-03-20T11:09:22.063Z,5.70
2019-03-20T11:11:50.539Z,6.15
2019-03-20T11:14:19.007Z,3.83
2019-03-20T11:16:47.567Z,5.50
2019-03-20T11:19:16.359Z,6.72
2019-03-20T11:21:44.842Z,9.80
2019-03-20T11:24:15.290Z,8.70
2019-03-20T11:26:42.383Z,5.40
2019-03-20T11:29:10.929Z,12.45
2019-03-20T11:31:39.437Z,9.38
2019-03-20T11:34:07.924Z,6.20
2019-03-20T11:36:36.419Z,6.22
2019-03-20T11:39:08.539Z,2.60
2019-03-20T11:41:37.019Z,7.17
2019-03-20T11:44:05.983Z,8.75
2019-03-20T11:46:34.471Z,10.60
2019-03-20T11:49:02.967Z,4.90
2019-03-20T11:51:31.427Z,7.35
2019-03-20T11:53:59.991Z,5.44
2019-03-20T11:56:28.491Z,9.23
2019-03-20T11:58:56.983Z,7.92
2019-03-20T12:01:25.495Z,7.55
2019-03-20T12:03:54.463Z,8.65
2019-03-20T12:06:22.939Z,5.77
2019-03-20T12:08:51.420Z,7.85
2019-03-20T12:11:20.195Z,6.43
2019-03-20T12:13:48.491Z,4.83
2019-03-20T12:16:17.235Z,6.85
2019-03-20T12:18:45.767Z,3.85
2019-03-20T12:21:14.604Z,7.87
2019-03-20T12:23:43.064Z,4.65
2019-03-20T12:26:12.071Z,4.87
2019-03-20T12:28:40.579Z,5.55
2019-03-20T12:31:09.099Z,5.80
2019-03-20T12:33:37.913Z,5.55
2019-03-20T12:36:06.462Z,4.90
2019-03-20T12:38:35.323Z,6.45
2019-03-20T12:41:05.004Z,7.60
2019-03-20T12:43:33.568Z,7.37
2019-03-20T12:46:02.102Z,4.87
2019-03-20T12:48:30.573Z,6.30
2019-03-20T12:50:59.055Z,6.62
2019-03-20T12:53:30.279Z,6.42
2019-03-20T12:55:58.771Z,6.58
2019-03-20T12:58:27.651Z,9.18
2019-03-20T13:00:56.163Z,11.68
2019-03-20T13:03:24.816Z,9.60
2019-03-20T13:05:53.323Z,6.75
2019-03-20T13:08:21.831Z,5.13
2019-03-20T13:10:50.327Z,10.08
2019-03-20T13:13:18.906Z,17.02
2019-03-20T13:15:47.415Z,13.55
2019-03-20T13:18:16.175Z,10.98
2019-03-20T13:20:44.679Z,5.25
2019-03-20T13:23:15.135Z,9.43
2019-03-20T13:25:43.635Z,4.25
2019-03-20T13:28:12.394Z,6.92
2019-03-20T13:30:44.919Z,5.40
2019-03-20T13:33:13.405Z,5.95
2019-03-20T13:35:42.214Z,8.28
2019-03-20T13:38:10.663Z,5.37
2019-03-20T13:40:39.127Z,5.20
2019-03-20T13:43:11.678Z,6.22
2019-03-20T13:45:40.213Z,5.97
2019-03-20T13:48:08.948Z,8.55
2019-03-20T13:50:37.999Z,7.03
2019-03-20T13:53:06.534Z,6.60
2019-03-20T13:55:35.012Z,5.42
2019-03-20T13:58:03.575Z,4.60
2019-03-20T14:00:32.278Z,9.18
2019-03-20T14:03:01.218Z,8.80
2019-03-20T14:05:30.090Z,12.25
2019-03-20T14:07:58.890Z,10.68
2019-03-20T14:10:27.966Z,7.80
2019-03-20T14:12:56.866Z,3.12
2019-03-20T14:15:25.367Z,5.53
2019-03-20T14:17:53.873Z,10.23
2019-03-20T14:20:23.430Z,13.88
2019-03-20T14:22:51.952Z,6.15
2019-03-20T14:25:20.555Z,9.53
2019-03-20T14:27:49.294Z,3.72
2019-03-20T14:30:20.770Z,4.55
2019-03-20T14:32:49.691Z,8.95
2019-03-20T14:35:18.190Z,6.58
2019-03-20T14:37:46.690Z,7.28
2019-03-20T14:40:15.770Z,7.40
2019-03-20T14:42:44.398Z,5.60
2019-03-20T14:45:13.914Z,5.75
2019-03-20T14:47:42.514Z,6.45
2019-03-20T14:50:13.794Z,5.87
2019-03-20T14:52:42.774Z,6.80
2019-03-20T14:55:11.550Z,4.08
2019-03-20T14:57:40.114Z,7.92
2019-03-20T15:00:11.637Z,6.07
2019-03-20T15:02:40.149Z,7.12
2019-03-20T15:05:08.854Z,7.08
2019-03-20T15:07:37.333Z,4.53
2019-03-20T15:10:06.517Z,10.38
2019-03-20T15:12:35.005Z,7.95
2019-03-20T15:15:03.936Z,5.05
2019-03-20T15:17:32.433Z,7.17
2019-03-20T15:20:01.541Z,8.75
2019-03-20T15:22:30.038Z,10.45
2019-03-20T15:24:58.589Z,5.47
2019-03-20T15:27:27.129Z,6.75
2019-03-20T15:29:55.597Z,9.10
2019-03-20T15:32:24.349Z,13.18
2019-03-20T15:34:53.196Z,9.80
2019-03-20T15:37:21.811Z,7.83
2019-03-20T15:39:50.317Z,6.55
2019-03-20T15:42:18.790Z,8.93
2019-03-20T15:44:47.253Z,6.92
2019-03-20T15:47:15.755Z,7.20
2019-03-20T15:49:44.508Z,7.75
2019-03-20T15:52:13.045Z,10.35
2019-03-20T15:54:41.601Z,8.05
2019-03-20T15:57:10.059Z,6.78
2019-03-20T15:59:38.581Z,6.42
2019-03-20T16:02:08.112Z,7.40
2019-03-20T16:04:36.630Z,7.20
2019-03-20T16:07:05.132Z,5.90
2019-03-20T16:09:33.573Z,5.20
2019-03-20T16:12:02.060Z,7.72
2019-03-20T16:14:30.684Z,5.03
2019-03-20T16:16:59.165Z,8.63
2019-03-20T16:19:27.787Z,2.90
2019-03-20T16:21:56.446Z,8.70
2019-03-20T16:24:24.941Z,6.47
2019-03-20T16:26:55.380Z,6.58
2019-03-20T16:29:22.115Z,7.43
2019-03-20T16:31:50.570Z,9.25
2019-03-20T16:34:19.037Z,6.00
2019-03-20T16:36:47.868Z,8.90
2019-03-20T16:39:16.345Z,7.00
2019-03-20T16:41:45.065Z,5.25
2019-03-20T16:44:13.533Z,13.15
2019-03-20T16:46:42.033Z,16.37
2019-03-20T16:49:10.566Z,12.30
2019-03-20T16:51:39.021Z,17.60
2019-03-20T16:54:07.853Z,16.52
2019-03-20T16:56:36.352Z,11.65
2019-03-20T16:59:08.013Z,12.55
2019-03-20T17:01:36.686Z,13.62
2019-03-20T17:17:21.516Z,10.00
2019-03-20T17:19:48.041Z,11.18
2019-03-20T17:22:16.632Z,9.25
2019-03-20T17:24:45.572Z,9.03
2019-03-20T17:27:14.212Z,14.05
2019-03-20T17:29:42.745Z,15.43
2019-03-20T17:32:13.140Z,13.40
2019-03-20T17:34:41.852Z,16.93
2019-03-20T17:37:10.636Z,15.05
2019-03-20T17:39:39.612Z,13.00
2019-03-20T17:42:10.321Z,11.80
2019-03-20T17:44:39.492Z,10.35
2019-03-20T17:47:08.369Z,12.10
2019-03-20T17:49:37.284Z,15.68
2019-03-20T17:55:17.631Z,21.87
2019-03-20T17:57:56.836Z,26.52
2019-03-20T18:00:35.838Z,25.75
2019-03-20T18:03:05.376Z,21.93
2019-03-20T18:05:34.212Z,13.58
2019-03-20T18:08:03.120Z,14.18
2019-03-20T18:10:50.476Z,15.88
2019-03-20T18:13:19.328Z,11.08
2019-03-20T18:15:48.636Z,12.55
2019-03-20T18:18:17.181Z,15.28
2019-03-20T18:20:45.992Z,17.82
2019-03-20T18:23:14.824Z,13.78
2019-03-20T18:25:43.508Z,19.92
2019-03-20T18:28:12.064Z,17.40
2019-03-20T18:30:41.264Z,15.85
2019-03-20T18:33:10.242Z,13.85
2019-03-20T18:35:39.020Z,11.30
2019-03-20T18:38:08.109Z,13.78
2019-03-20T18:40:36.848Z,12.73
2019-03-20T18:43:05.593Z,12.13
2019-03-20T18:45:34.363Z,10.68
2019-03-20T18:48:03.429Z,13.13
2019-03-20T18:50:32.130Z,12.15
2019-03-20T18:53:00.948Z,12.23
2019-03-20T18:55:29.556Z,10.65
2019-03-20T18:57:58.416Z,9.55
2019-03-20T19:00:27.170Z,7.13
2019-03-20T19:02:56.452Z,5.70
2019-03-20T19:05:30.268Z,7.42
2019-03-20T19:07:58.955Z,9.85
2019-03-20T19:10:28.825Z,9.05
2019-03-20T19:12:57.491Z,9.00
2019-03-20T19:15:26.032Z,13.32
2019-03-20T19:17:54.927Z,10.95
2019-03-20T19:20:23.541Z,10.43
2019-03-20T19:22:52.148Z,11.43
2019-03-20T19:25:20.714Z,11.57
2019-03-20T19:27:49.257Z,11.93
2019-03-20T19:30:18.875Z,10.57
2019-03-20T19:32:47.584Z,9.80
2019-03-20T19:35:16.215Z,7.12
2019-03-20T19:37:44.947Z,6.67
2019-03-20T19:40:13.860Z,11.30
2019-03-20T19:42:42.652Z,9.68
2019-03-20T19:45:11.475Z,10.23
2019-03-20T19:47:40.275Z,11.15
2019-03-20T19:50:10.815Z,11.73
2019-03-20T19:52:39.371Z,11.05
2019-03-20T20:07:04.327Z,14.05
2019-03-20T20:09:44.599Z,13.75
2019-03-20T20:36:56.152Z,11.57
2019-03-20T20:39:25.100Z,9.98
2019-03-20T20:41:53.792Z,14.95
2019-03-20T20:44:22.580Z,14.60
2019-03-20T20:46:51.309Z,14.73
2019-03-20T20:49:19.952Z,13.18
2019-03-20T20:51:48.564Z,11.03
2019-03-20T20:54:17.260Z,17.80
2019-03-20T20:56:46.000Z,11.95
2019-03-20T20:59:14.804Z,14.05
2019-03-20T21:01:43.327Z,16.70
2019-03-20T21:05:14.639Z,11.97
2019-03-20T21:07:43.169Z,15.48
2019-03-20T21:10:12.871Z,15.70
2019-03-20T21:12:42.728Z,12.68
2019-03-20T21:19:06.279Z,18.57
2019-03-20T21:24:22.171Z,14.25
2019-03-20T21:29:12.017Z,14.93
2019-03-20T21:34:49.965Z,15.00
2019-03-20T21:38:24.893Z,17.52
2019-03-20T21:53:55.551Z,18.15
2019-03-20T22:02:09.934Z,15.75
2019-03-20T22:12:00.218Z,13.50
2019-03-20T22:26:23.274Z,15.55
2019-03-20T22:42:33.786Z,13.98
2019-03-20T22:48:22.422Z,11.48
